El Jadida, Morocco

12:01 PM WEST on July 28, 2015 (GMT +0100)
Mohamed V | | Change Station
CLOSE
Current Station
Airport
Location: Nouasseur,
Elevation: 676 ft
Nearby Weather Stations

Elev 676 ft 33.37 °N, 7.59 °W | Updated 31 minutes ago

Scattered Clouds
Scattered Clouds
84 °F
Feels Like 87 °F
N
10
Wind Variable Wind from North

Today
High -- | Low -- °F
--% Chance of Precip.
Yesterday
High -- | Low -- °F
Precip. -- in
6:43 AM 8:36 PM
Waxing Gibbous, 89% visible
Pressure 29.95 in
Visibility 6.2 miles
Clouds Few 1000 ft
Scattered Clouds 10000 ft
Heat Index 87 °F
Dew Point 68 °F
Humidity 58%
Rainfall 0.00 in
Snow Depth Not available.
UV 8 out of 12
Pollen Not available.
Air Quality Not available.
Flu Activity Not available.
METAR GMMN 281030Z 35009KT 300V020 9999 FEW010 SCT100 29/20 Q1014 TEMPO CAVOK

More Conditions Fewer Conditions

Pressure 29.95 in
Visibility 6.2 miles
Clouds Few 1000 ft
Scattered Clouds 10000 ft
Heat Index 87 °F
Dew Point 68 °F
Humidity 58%
Rainfall 0.00 in
Snow Depth Not available.
UV 8 out of 12
Pollen Not available.
Air Quality Not available.
Flu Activity Not available.
METAR GMMN 281030Z 35009KT 300V020 9999 FEW010 SCT100 29/20 Q1014 TEMPO CAVOK

More Conditions Fewer Conditions

10-Day Weather Forecast

×

Almanac

Astronomy

Jul. 28, 2015 Rise Set
Actual Time
Civil Twilight
Nautical Twilight
Astronomical Twilight
Moon
Length of Visible Light
Length of Day
Tomorrow will be .
, % of the Moon is Illuminated

Today's Extremes

Country Highs Country Lows

Community

WunderPhotos

Upload Photos

1,841,802 photos uploaded!

WunderBlogs® & News

Nearby

Air Quality

  Air Quality AQ Index Pollutant
Not available.

Snow Depth

Station Depth Elevation

Earthquake Activity

City Distance Mag. Time & Date
Minimum magnitude displayed is 2.5.

Coastal Water Temperatures

Place Temperature

Stations

Nearby Weather Stations

Station Location Temp. Windchill Dew Point Humidity Wind Precip. Elev Updated Type